EZY240 LFKJ-EIDW
Flight info
| Callsign | EZY240 |
|---|---|
| Flight time | 2h 36m |
| Altitude | 36000 |
| Route | VAREK DCT PADKO UY342 BULTO Y341 SALIN Y25 FJR DCT MAKOX DCT TUPAR UM184 USODA UM616 NTS UY110 REN UN862 SKESO DCT SKERY DCT EMWIP DCT NIRIF NIRIF1L |
| Aircraft | A320/M-SDE3FGHIRWY/LB1 |
Departure
| Time | 2026-04-24 09:51 |
|---|---|
| Airport | Ajaccio Napoléon Bonaparte airport (LFKJ) |
Arrival
| Time | 2026-04-24 12:28 |
|---|---|
| Airport | Dublin Airport (EIDW) |
| Time | Latitude | Longitude | Altitude | Speed | Heading |
|---|---|---|---|---|---|
| 2026-04-24 09:38 | 41.91913 | 8.79537 | 21 ft | 0 kts | 345° |
| 2026-04-24 09:41 | 41.91895 | 8.79543 | 21 ft | 3 kts | 345° |
| 2026-04-24 09:41 | 41.91878 | 8.79549 | 22 ft | 0 kts | 345° |
| 2026-04-24 09:46 | 41.91880 | 8.79548 | 22 ft | 3 kts | 350° |
| 2026-04-24 09:47 | 41.91892 | 8.79560 | 24 ft | 1 kts | 57° |
| 2026-04-24 09:47 | 41.91888 | 8.79576 | 21 ft | 3 kts | 120° |
| 2026-04-24 09:47 | 41.91865 | 8.79586 | 22 ft | 7 kts | 179° |
| 2026-04-24 09:47 | 41.91795 | 8.79540 | 21 ft | 13 kts | 211° |
| 2026-04-24 09:48 | 41.91710 | 8.79484 | 22 ft | 14 kts | 206° |
| 2026-04-24 09:48 | 41.91617 | 8.79424 | 21 ft | 15 kts | 205° |
| 2026-04-24 09:48 | 41.91509 | 8.79354 | 21 ft | 19 kts | 205° |
| 2026-04-24 09:48 | 41.91380 | 8.79340 | 21 ft | 21 kts | 155° |
| 2026-04-24 09:49 | 41.91286 | 8.79404 | 23 ft | 0 kts | 153° |
| 2026-04-24 09:49 | 41.91285 | 8.79405 | 23 ft | 2 kts | 153° |
| 2026-04-24 09:50 | 41.91244 | 8.79481 | 22 ft | 13 kts | 91° |
| 2026-04-24 09:50 | 41.91290 | 8.79559 | 23 ft | 10 kts | 30° |
| 2026-04-24 09:50 | 41.91314 | 8.79577 | 22 ft | 0 kts | 26° |
| 2026-04-24 09:50 | 41.91326 | 8.79584 | 23 ft | 19 kts | 26° |
| 2026-04-24 09:51 | 41.91725 | 8.79822 | 21 ft | 104 kts | 24° |
| 2026-04-24 09:51 | 41.92593 | 8.80360 | 36 ft | 166 kts | 26° |
| 2026-04-24 09:51 | 41.93691 | 8.81116 | 532 ft | 182 kts | 31° |
| 2026-04-24 09:51 | 41.94584 | 8.82235 | 1542 ft | 168 kts | 67° |
| 2026-04-24 09:52 | 41.94610 | 8.83741 | 2357 ft | 173 kts | 117° |
| 2026-04-24 09:52 | 41.93673 | 8.84790 | 2988 ft | 188 kts | 169° |
| 2026-04-24 09:52 | 41.92431 | 8.84558 | 3496 ft | 179 kts | 216° |
| 2026-04-24 09:52 | 41.91623 | 8.83259 | 3832 ft | 192 kts | 243° |
| 2026-04-24 09:53 | 41.91172 | 8.81490 | 4068 ft | 209 kts | 259° |
| 2026-04-24 09:53 | 41.90940 | 8.79464 | 4337 ft | 227 kts | 261° |
| 2026-04-24 09:53 | 41.90555 | 8.77303 | 4608 ft | 252 kts | 248° |
| 2026-04-24 09:53 | 41.89729 | 8.75110 | 4942 ft | 272 kts | 239° |
| 2026-04-24 09:54 | 41.88708 | 8.72952 | 5008 ft | 275 kts | 236° |
| 2026-04-24 09:54 | 41.87625 | 8.70838 | 5042 ft | 277 kts | 234° |
| 2026-04-24 09:54 | 41.86515 | 8.68695 | 5745 ft | 280 kts | 234° |
| 2026-04-24 09:54 | 41.85409 | 8.66529 | 6525 ft | 285 kts | 234° |
| 2026-04-24 09:55 | 41.84325 | 8.64277 | 7271 ft | 290 kts | 243° |
| 2026-04-24 09:55 | 41.83741 | 8.61684 | 8019 ft | 294 kts | 266° |
| 2026-04-24 09:55 | 41.83914 | 8.58964 | 8793 ft | 294 kts | 288° |
| 2026-04-24 09:55 | 41.84808 | 8.56531 | 9590 ft | 292 kts | 310° |
| 2026-04-24 09:56 | 41.86237 | 8.54586 | 10305 ft | 296 kts | 320° |
| 2026-04-24 09:56 | 41.87810 | 8.52655 | 10511 ft | 319 kts | 320° |
| 2026-04-24 09:56 | 41.89480 | 8.50595 | 10945 ft | 331 kts | 319° |
| 2026-04-24 09:56 | 41.91181 | 8.48483 | 11605 ft | 335 kts | 319° |
| 2026-04-24 09:57 | 41.92897 | 8.46349 | 12297 ft | 338 kts | 319° |
| 2026-04-24 09:57 | 41.94633 | 8.44185 | 12994 ft | 341 kts | 319° |
| 2026-04-24 09:57 | 41.96377 | 8.42004 | 13666 ft | 345 kts | 319° |
| 2026-04-24 09:57 | 41.98142 | 8.39797 | 14291 ft | 348 kts | 319° |
| 2026-04-24 09:58 | 41.99921 | 8.37574 | 14882 ft | 351 kts | 319° |
| 2026-04-24 09:58 | 42.01715 | 8.35332 | 15469 ft | 353 kts | 319° |
| 2026-04-24 09:58 | 42.03518 | 8.33077 | 16077 ft | 355 kts | 319° |
| 2026-04-24 09:58 | 42.05308 | 8.30833 | 16669 ft | 358 kts | 319° |
| 2026-04-24 09:59 | 42.07156 | 8.28514 | 17253 ft | 361 kts | 319° |
| 2026-04-24 09:59 | 42.08977 | 8.26228 | 17815 ft | 364 kts | 318° |
| 2026-04-24 09:59 | 42.10832 | 8.23896 | 18372 ft | 367 kts | 318° |
| 2026-04-24 09:59 | 42.12707 | 8.21537 | 18867 ft | 370 kts | 319° |
| 2026-04-24 10:00 | 42.14594 | 8.19159 | 19348 ft | 373 kts | 319° |
| 2026-04-24 10:00 | 42.16493 | 8.16766 | 19831 ft | 376 kts | 319° |
| 2026-04-24 10:00 | 42.18409 | 8.14350 | 20311 ft | 378 kts | 319° |
| 2026-04-24 10:00 | 42.20334 | 8.11922 | 20791 ft | 381 kts | 319° |
| 2026-04-24 10:01 | 42.22277 | 8.09472 | 21262 ft | 383 kts | 319° |
| 2026-04-24 10:01 | 42.24236 | 8.07000 | 21718 ft | 386 kts | 319° |
| 2026-04-24 10:01 | 42.26197 | 8.04525 | 22164 ft | 388 kts | 319° |
| 2026-04-24 10:01 | 42.28181 | 8.02025 | 22611 ft | 391 kts | 319° |
| 2026-04-24 10:02 | 42.30141 | 7.99460 | 23058 ft | 394 kts | 314° |
| 2026-04-24 10:02 | 42.31806 | 7.96491 | 23475 ft | 399 kts | 303° |
| 2026-04-24 10:02 | 42.33092 | 7.93152 | 23914 ft | 402 kts | 297° |
| 2026-04-24 10:02 | 42.34312 | 7.89749 | 24262 ft | 404 kts | 298° |
| 2026-04-24 10:03 | 42.35560 | 7.86299 | 24472 ft | 411 kts | 298° |
| 2026-04-24 10:03 | 42.36825 | 7.82815 | 24756 ft | 415 kts | 298° |
| 2026-04-24 10:03 | 42.38114 | 7.79247 | 24559 ft | 433 kts | 297° |
| 2026-04-24 10:03 | 42.39448 | 7.75551 | 24764 ft | 436 kts | 298° |
| 2026-04-24 10:04 | 42.40763 | 7.71915 | 25513 ft | 427 kts | 298° |
| 2026-04-24 10:04 | 42.42068 | 7.68306 | 25953 ft | 427 kts | 298° |
| 2026-04-24 10:04 | 42.43378 | 7.64686 | 26297 ft | 429 kts | 298° |
| 2026-04-24 10:04 | 42.44693 | 7.61042 | 26616 ft | 432 kts | 298° |
| 2026-04-24 10:05 | 42.46006 | 7.57388 | 26915 ft | 434 kts | 297° |
| 2026-04-24 10:05 | 42.47324 | 7.53700 | 27282 ft | 435 kts | 297° |
| 2026-04-24 10:05 | 42.48639 | 7.50013 | 27594 ft | 437 kts | 297° |
| 2026-04-24 10:05 | 42.49966 | 7.46293 | 27892 ft | 439 kts | 297° |
| 2026-04-24 10:06 | 42.51306 | 7.42541 | 28178 ft | 442 kts | 297° |
| 2026-04-24 10:06 | 42.53994 | 7.34988 | 28755 ft | 447 kts | 297° |
| 2026-04-24 10:06 | 42.55346 | 7.31177 | 29033 ft | 450 kts | 297° |
| 2026-04-24 10:07 | 42.56706 | 7.27341 | 29311 ft | 453 kts | 297° |
| 2026-04-24 10:07 | 42.58073 | 7.23485 | 29594 ft | 455 kts | 297° |
| 2026-04-24 10:07 | 42.59442 | 7.19618 | 29858 ft | 457 kts | 297° |
| 2026-04-24 10:07 | 42.60831 | 7.15693 | 30114 ft | 460 kts | 297° |
| 2026-04-24 10:08 | 42.62213 | 7.11779 | 30366 ft | 462 kts | 297° |
| 2026-04-24 10:08 | 42.63599 | 7.07847 | 30588 ft | 464 kts | 297° |
| 2026-04-24 10:08 | 42.64992 | 7.03889 | 30816 ft | 465 kts | 297° |
| 2026-04-24 10:08 | 42.66390 | 6.99919 | 31059 ft | 466 kts | 297° |
| 2026-04-24 10:09 | 42.67798 | 6.95928 | 31296 ft | 468 kts | 297° |
| 2026-04-24 10:09 | 42.69203 | 6.91942 | 31504 ft | 469 kts | 297° |
| 2026-04-24 10:09 | 42.70608 | 6.87933 | 31792 ft | 469 kts | 297° |
| 2026-04-24 10:09 | 42.71996 | 6.83945 | 32110 ft | 467 kts | 296° |
| 2026-04-24 10:10 | 42.73377 | 6.79966 | 32537 ft | 463 kts | 296° |
| 2026-04-24 10:10 | 42.74748 | 6.76021 | 32964 ft | 459 kts | 297° |
| 2026-04-24 10:10 | 42.76115 | 6.72097 | 33335 ft | 457 kts | 297° |
| 2026-04-24 10:10 | 42.77473 | 6.68199 | 33670 ft | 455 kts | 297° |
| 2026-04-24 10:11 | 42.78829 | 6.64299 | 34013 ft | 454 kts | 296° |
| 2026-04-24 10:11 | 42.80171 | 6.60429 | 34316 ft | 453 kts | 296° |
| 2026-04-24 10:11 | 42.81513 | 6.56544 | 34589 ft | 451 kts | 296° |
| 2026-04-24 10:11 | 42.82826 | 6.52729 | 34860 ft | 450 kts | 296° |
| 2026-04-24 10:12 | 42.84167 | 6.48828 | 35076 ft | 450 kts | 296° |
| 2026-04-24 10:12 | 42.85498 | 6.44963 | 35222 ft | 451 kts | 296° |
| 2026-04-24 10:12 | 42.86817 | 6.41140 | 35521 ft | 449 kts | 296° |
| 2026-04-24 10:12 | 42.88157 | 6.37254 | 35778 ft | 447 kts | 296° |
| 2026-04-24 10:13 | 42.89480 | 6.33407 | 36008 ft | 446 kts | 296° |
| 2026-04-24 10:13 | 42.90790 | 6.29587 | 36166 ft | 446 kts | 296° |
| 2026-04-24 10:13 | 42.92094 | 6.25769 | 36195 ft | 442 kts | 296° |
| 2026-04-24 10:14 | 42.94672 | 6.18195 | 36194 ft | 440 kts | 296° |
| 2026-04-24 10:14 | 42.97236 | 6.10666 | 36193 ft | 439 kts | 296° |
| 2026-04-24 10:15 | 42.99802 | 6.03112 | 36193 ft | 438 kts | 296° |
| 2026-04-24 10:15 | 43.02360 | 5.95571 | 36194 ft | 437 kts | 296° |
| 2026-04-24 10:16 | 43.04494 | 5.89257 | 36196 ft | 438 kts | 296° |
| 2026-04-24 10:16 | 43.07453 | 5.80466 | 36200 ft | 438 kts | 296° |
| 2026-04-24 10:17 | 43.09585 | 5.74118 | 36188 ft | 438 kts | 296° |
| 2026-04-24 10:17 | 43.12119 | 5.66542 | 36192 ft | 438 kts | 296° |
| 2026-04-24 10:18 | 43.14636 | 5.59026 | 36198 ft | 437 kts | 296° |
| 2026-04-24 10:18 | 43.17153 | 5.51465 | 36199 ft | 436 kts | 296° |
| 2026-04-24 10:19 | 43.19665 | 5.43897 | 36198 ft | 436 kts | 295° |
| 2026-04-24 10:19 | 43.22167 | 5.36326 | 36196 ft | 436 kts | 294° |
| 2026-04-24 10:20 | 43.23668 | 5.28289 | 36202 ft | 437 kts | 279° |
| 2026-04-24 10:20 | 43.24470 | 5.19983 | 36217 ft | 436 kts | 279° |
| 2026-04-24 10:21 | 43.25286 | 5.11809 | 36208 ft | 435 kts | 279° |
| 2026-04-24 10:21 | 43.26089 | 5.03601 | 36205 ft | 434 kts | 279° |
| 2026-04-24 10:22 | 43.26880 | 4.95391 | 36202 ft | 434 kts | 279° |
| 2026-04-24 10:22 | 43.27619 | 4.87199 | 36205 ft | 433 kts | 278° |
| 2026-04-24 10:23 | 43.28076 | 4.78956 | 36212 ft | 432 kts | 276° |
| 2026-04-24 10:23 | 43.29234 | 4.70974 | 36208 ft | 425 kts | 294° |
| 2026-04-24 10:24 | 43.31936 | 4.63819 | 36205 ft | 422 kts | 301° |
| 2026-04-24 10:24 | 43.34777 | 4.56759 | 36187 ft | 422 kts | 301° |
| 2026-04-24 10:25 | 43.37588 | 4.49682 | 36194 ft | 422 kts | 301° |
| 2026-04-24 10:25 | 43.40389 | 4.42582 | 36194 ft | 422 kts | 300° |
| 2026-04-24 10:26 | 43.43159 | 4.35463 | 36193 ft | 422 kts | 300° |
| 2026-04-24 10:26 | 43.45914 | 4.28342 | 36191 ft | 422 kts | 300° |
| 2026-04-24 10:27 | 43.48675 | 4.21231 | 36190 ft | 422 kts | 300° |
| 2026-04-24 10:27 | 43.51423 | 4.14141 | 36184 ft | 422 kts | 300° |
| 2026-04-24 10:28 | 43.54194 | 4.06961 | 36185 ft | 422 kts | 300° |
| 2026-04-24 10:28 | 43.56946 | 3.99816 | 36185 ft | 422 kts | 302° |
| 2026-04-24 10:29 | 43.60491 | 3.93529 | 36177 ft | 418 kts | 314° |
| 2026-04-24 10:29 | 43.64456 | 3.87643 | 36174 ft | 419 kts | 314° |
| 2026-04-24 10:30 | 43.68412 | 3.81733 | 36175 ft | 419 kts | 314° |
| 2026-04-24 10:30 | 43.72365 | 3.75810 | 36182 ft | 419 kts | 314° |
| 2026-04-24 10:31 | 43.76312 | 3.69882 | 36180 ft | 419 kts | 314° |
| 2026-04-24 10:31 | 43.80257 | 3.63943 | 36177 ft | 419 kts | 314° |
| 2026-04-24 10:32 | 43.84197 | 3.58012 | 36187 ft | 418 kts | 314° |
| 2026-04-24 10:32 | 43.88134 | 3.52082 | 36180 ft | 418 kts | 313° |
| 2026-04-24 10:33 | 43.92065 | 3.46134 | 36186 ft | 418 kts | 313° |
| 2026-04-24 10:33 | 43.95994 | 3.40183 | 36182 ft | 418 kts | 313° |
| 2026-04-24 10:34 | 43.99918 | 3.34220 | 36178 ft | 419 kts | 313° |
| 2026-04-24 10:34 | 44.03843 | 3.28246 | 36163 ft | 418 kts | 313° |
| 2026-04-24 10:35 | 44.07764 | 3.22269 | 36171 ft | 418 kts | 313° |
| 2026-04-24 10:35 | 44.11681 | 3.16281 | 36168 ft | 418 kts | 313° |
| 2026-04-24 10:36 | 44.15591 | 3.10287 | 36174 ft | 418 kts | 313° |
| 2026-04-24 10:36 | 44.19496 | 3.04295 | 36165 ft | 418 kts | 313° |
| 2026-04-24 10:37 | 44.23397 | 2.98303 | 36165 ft | 417 kts | 313° |
| 2026-04-24 10:37 | 44.27293 | 2.92305 | 36176 ft | 416 kts | 313° |
| 2026-04-24 10:38 | 44.31177 | 2.86308 | 36161 ft | 417 kts | 313° |
| 2026-04-24 10:38 | 44.35062 | 2.80302 | 36149 ft | 417 kts | 313° |
| 2026-04-24 10:39 | 44.38954 | 2.74258 | 36169 ft | 417 kts | 312° |
| 2026-04-24 10:39 | 44.42829 | 2.68219 | 36169 ft | 417 kts | 312° |
| 2026-04-24 10:40 | 44.46709 | 2.62178 | 36151 ft | 418 kts | 312° |
| 2026-04-24 10:40 | 44.50592 | 2.56126 | 36163 ft | 418 kts | 312° |
| 2026-04-24 10:41 | 44.54464 | 2.50065 | 36163 ft | 417 kts | 312° |
| 2026-04-24 10:41 | 44.58331 | 2.43991 | 36147 ft | 418 kts | 312° |
| 2026-04-24 10:42 | 44.62212 | 2.37890 | 36149 ft | 418 kts | 311° |
| 2026-04-24 10:42 | 44.66060 | 2.31836 | 36143 ft | 419 kts | 311° |
| 2026-04-24 10:43 | 44.69962 | 2.25678 | 36139 ft | 419 kts | 311° |
| 2026-04-24 10:43 | 44.73810 | 2.19604 | 36144 ft | 419 kts | 311° |
| 2026-04-24 10:44 | 44.77682 | 2.13476 | 36162 ft | 418 kts | 311° |
| 2026-04-24 10:44 | 44.81537 | 2.07359 | 36142 ft | 418 kts | 311° |
| 2026-04-24 10:45 | 44.85392 | 2.01223 | 36151 ft | 417 kts | 311° |
| 2026-04-24 10:45 | 44.89228 | 1.95089 | 36144 ft | 417 kts | 311° |
| 2026-04-24 10:46 | 44.93051 | 1.88962 | 36128 ft | 417 kts | 311° |
| 2026-04-24 10:46 | 44.96883 | 1.82821 | 36115 ft | 417 kts | 311° |
| 2026-04-24 10:47 | 45.00715 | 1.76661 | 36132 ft | 417 kts | 311° |
| 2026-04-24 10:47 | 45.04555 | 1.70486 | 36127 ft | 418 kts | 311° |
| 2026-04-24 10:48 | 45.08388 | 1.64308 | 36123 ft | 418 kts | 311° |
| 2026-04-24 10:48 | 45.12229 | 1.58106 | 36127 ft | 418 kts | 311° |
| 2026-04-24 10:49 | 45.16051 | 1.51915 | 36126 ft | 418 kts | 311° |
| 2026-04-24 10:49 | 45.19888 | 1.45685 | 36129 ft | 419 kts | 311° |
| 2026-04-24 10:50 | 45.23682 | 1.39503 | 36121 ft | 419 kts | 311° |
| 2026-04-24 10:50 | 45.27501 | 1.33262 | 36117 ft | 419 kts | 311° |
| 2026-04-24 10:51 | 45.31316 | 1.27028 | 36115 ft | 419 kts | 311° |
| 2026-04-24 10:51 | 45.35106 | 1.20807 | 36106 ft | 419 kts | 310° |
| 2026-04-24 10:52 | 45.38887 | 1.14450 | 36110 ft | 419 kts | 310° |
| 2026-04-24 10:52 | 45.42631 | 1.08094 | 36098 ft | 419 kts | 310° |
| 2026-04-24 10:53 | 45.46388 | 1.01735 | 36099 ft | 419 kts | 310° |
| 2026-04-24 10:53 | 45.50150 | 0.95388 | 36101 ft | 419 kts | 310° |
| 2026-04-24 10:54 | 45.53917 | 0.89031 | 36102 ft | 419 kts | 310° |
| 2026-04-24 10:54 | 45.57661 | 0.82673 | 36107 ft | 419 kts | 310° |
| 2026-04-24 10:55 | 45.61377 | 0.76348 | 36098 ft | 419 kts | 310° |
| 2026-04-24 10:55 | 45.65150 | 0.69891 | 36097 ft | 420 kts | 310° |
| 2026-04-24 10:56 | 45.68900 | 0.63474 | 36095 ft | 420 kts | 310° |
| 2026-04-24 10:56 | 45.72646 | 0.57053 | 36098 ft | 421 kts | 309° |
| 2026-04-24 10:57 | 45.76392 | 0.50617 | 36098 ft | 421 kts | 309° |
| 2026-04-24 10:57 | 45.80135 | 0.44162 | 36107 ft | 421 kts | 309° |
| 2026-04-24 10:58 | 45.83867 | 0.37709 | 36259 ft | 424 kts | 309° |
| 2026-04-24 10:58 | 45.85765 | 0.34426 | 36409 ft | 425 kts | 309° |
| 2026-04-24 10:58 | 45.87654 | 0.31161 | 36584 ft | 426 kts | 309° |
| 2026-04-24 10:58 | 45.89548 | 0.27881 | 36751 ft | 426 kts | 309° |
| 2026-04-24 10:59 | 45.91437 | 0.24607 | 36931 ft | 427 kts | 309° |
| 2026-04-24 10:59 | 45.93327 | 0.21323 | 37084 ft | 426 kts | 309° |
| 2026-04-24 10:59 | 45.95209 | 0.18050 | 37117 ft | 425 kts | 309° |
| 2026-04-24 11:00 | 45.98974 | 0.11493 | 37111 ft | 425 kts | 309° |
| 2026-04-24 11:00 | 46.02710 | 0.04971 | 37114 ft | 425 kts | 309° |
| 2026-04-24 11:01 | 46.06460 | -0.01606 | 37104 ft | 425 kts | 308° |
| 2026-04-24 11:01 | 46.10207 | -0.08190 | 37113 ft | 426 kts | 308° |
| 2026-04-24 11:02 | 46.13961 | -0.14798 | 37105 ft | 426 kts | 309° |
| 2026-04-24 11:02 | 46.17713 | -0.21410 | 37085 ft | 427 kts | 308° |
| 2026-04-24 11:03 | 46.21468 | -0.28044 | 37121 ft | 426 kts | 308° |
| 2026-04-24 11:03 | 46.25209 | -0.34668 | 37126 ft | 426 kts | 309° |
| 2026-04-24 11:04 | 46.28338 | -0.40230 | 37111 ft | 426 kts | 309° |
| 2026-04-24 11:04 | 46.32054 | -0.46849 | 37093 ft | 427 kts | 308° |
| 2026-04-24 11:05 | 46.35793 | -0.53521 | 37120 ft | 427 kts | 308° |
| 2026-04-24 11:05 | 46.39533 | -0.60197 | 37136 ft | 426 kts | 308° |
| 2026-04-24 11:06 | 46.43364 | -0.66798 | 37129 ft | 425 kts | 315° |
| 2026-04-24 11:06 | 46.47755 | -0.72471 | 37129 ft | 425 kts | 318° |
| 2026-04-24 11:07 | 46.54394 | -0.81004 | 37119 ft | 425 kts | 317° |
| 2026-04-24 11:07 | 46.58824 | -0.86736 | 37092 ft | 427 kts | 317° |
| 2026-04-24 11:08 | 46.63270 | -0.92471 | 37103 ft | 428 kts | 318° |
| 2026-04-24 11:08 | 46.67744 | -0.98219 | 37121 ft | 429 kts | 317° |
| 2026-04-24 11:09 | 46.72211 | -1.03987 | 37107 ft | 429 kts | 317° |
| 2026-04-24 11:09 | 46.76676 | -1.09772 | 37115 ft | 430 kts | 317° |
| 2026-04-24 11:10 | 46.81150 | -1.15572 | 37125 ft | 430 kts | 317° |
| 2026-04-24 11:10 | 46.85614 | -1.21374 | 37126 ft | 430 kts | 317° |
| 2026-04-24 11:11 | 46.90081 | -1.27193 | 37100 ft | 431 kts | 317° |
| 2026-04-24 11:11 | 46.94563 | -1.33046 | 37102 ft | 433 kts | 317° |
| 2026-04-24 11:12 | 46.99064 | -1.38943 | 37127 ft | 434 kts | 317° |
| 2026-04-24 11:12 | 47.03562 | -1.44833 | 37124 ft | 434 kts | 316° |
| 2026-04-24 11:13 | 47.08059 | -1.50738 | 37130 ft | 434 kts | 317° |
| 2026-04-24 11:13 | 47.12589 | -1.56613 | 37121 ft | 435 kts | 321° |
| 2026-04-24 11:14 | 47.17882 | -1.60835 | 37136 ft | 436 kts | 341° |
| 2026-04-24 11:14 | 47.23864 | -1.62345 | 37135 ft | 438 kts | 354° |
| 2026-04-24 11:15 | 47.29873 | -1.63124 | 37115 ft | 438 kts | 353° |
| 2026-04-24 11:15 | 47.36000 | -1.63964 | 37141 ft | 438 kts | 353° |
| 2026-04-24 11:16 | 47.42071 | -1.64841 | 37147 ft | 438 kts | 353° |
| 2026-04-24 11:16 | 47.48141 | -1.65718 | 37152 ft | 438 kts | 353° |
| 2026-04-24 11:17 | 47.54158 | -1.66577 | 37155 ft | 438 kts | 353° |
| 2026-04-24 11:17 | 47.60262 | -1.67447 | 37156 ft | 438 kts | 353° |
| 2026-04-24 11:18 | 47.66334 | -1.68316 | 37131 ft | 440 kts | 354° |
| 2026-04-24 11:18 | 47.72442 | -1.69192 | 37128 ft | 441 kts | 353° |
| 2026-04-24 11:19 | 47.78553 | -1.70080 | 37142 ft | 442 kts | 353° |
| 2026-04-24 11:19 | 47.84635 | -1.70950 | 37165 ft | 442 kts | 354° |
| 2026-04-24 11:20 | 47.90764 | -1.71830 | 37153 ft | 442 kts | 353° |
| 2026-04-24 11:20 | 47.96896 | -1.72719 | 37163 ft | 443 kts | 353° |
| 2026-04-24 11:21 | 48.03025 | -1.73602 | 37172 ft | 442 kts | 353° |
| 2026-04-24 11:21 | 48.09127 | -1.74193 | 37164 ft | 443 kts | 358° |
| 2026-04-24 11:22 | 48.15333 | -1.74263 | 37158 ft | 443 kts | 359° |
| 2026-04-24 11:22 | 48.21489 | -1.74349 | 37180 ft | 443 kts | 358° |
| 2026-04-24 11:23 | 48.27652 | -1.74431 | 37184 ft | 443 kts | 358° |
| 2026-04-24 11:23 | 48.33817 | -1.74507 | 37179 ft | 442 kts | 358° |
| 2026-04-24 11:24 | 48.39978 | -1.74581 | 37182 ft | 442 kts | 358° |
| 2026-04-24 11:24 | 48.46133 | -1.74645 | 37193 ft | 442 kts | 358° |
| 2026-04-24 11:25 | 48.52278 | -1.74714 | 37210 ft | 442 kts | 358° |
| 2026-04-24 11:25 | 48.58422 | -1.74796 | 37203 ft | 442 kts | 358° |
| 2026-04-24 11:26 | 48.64574 | -1.74876 | 37226 ft | 441 kts | 358° |
| 2026-04-24 11:26 | 48.70715 | -1.74958 | 37223 ft | 441 kts | 358° |
| 2026-04-24 11:27 | 48.76850 | -1.75031 | 37220 ft | 441 kts | 358° |
| 2026-04-24 11:27 | 48.82982 | -1.75102 | 37232 ft | 440 kts | 358° |
| 2026-04-24 11:28 | 48.89021 | -1.76155 | 37217 ft | 437 kts | 341° |
| 2026-04-24 11:28 | 48.94449 | -1.80133 | 37212 ft | 432 kts | 322° |
| 2026-04-24 11:29 | 48.98985 | -1.86076 | 37207 ft | 431 kts | 316° |
| 2026-04-24 11:29 | 49.03419 | -1.92151 | 37208 ft | 432 kts | 316° |
| 2026-04-24 11:30 | 49.07903 | -1.98329 | 37224 ft | 432 kts | 316° |
| 2026-04-24 11:30 | 49.12358 | -2.04483 | 37232 ft | 431 kts | 316° |
| 2026-04-24 11:31 | 49.16804 | -2.10644 | 37230 ft | 431 kts | 316° |
| 2026-04-24 11:31 | 49.21242 | -2.16793 | 37225 ft | 431 kts | 316° |
| 2026-04-24 11:32 | 49.25678 | -2.22961 | 37236 ft | 431 kts | 315° |
| 2026-04-24 11:32 | 49.30115 | -2.29162 | 37228 ft | 432 kts | 315° |
| 2026-04-24 11:33 | 49.34569 | -2.35372 | 37231 ft | 433 kts | 316° |
| 2026-04-24 11:33 | 49.39016 | -2.41603 | 37223 ft | 433 kts | 315° |
| 2026-04-24 11:34 | 49.43456 | -2.47850 | 37221 ft | 433 kts | 315° |
| 2026-04-24 11:34 | 49.47898 | -2.54112 | 37224 ft | 434 kts | 315° |
| 2026-04-24 11:35 | 49.52336 | -2.60388 | 37228 ft | 434 kts | 315° |
| 2026-04-24 11:35 | 49.56782 | -2.66683 | 37233 ft | 433 kts | 315° |
| 2026-04-24 11:36 | 49.61208 | -2.72964 | 37243 ft | 433 kts | 315° |
| 2026-04-24 11:36 | 49.65651 | -2.79282 | 37240 ft | 434 kts | 314° |
| 2026-04-24 11:37 | 49.70081 | -2.85603 | 37255 ft | 435 kts | 315° |
| 2026-04-24 11:37 | 49.74522 | -2.91950 | 37265 ft | 435 kts | 314° |
| 2026-04-24 11:38 | 49.78956 | -2.98317 | 37273 ft | 434 kts | 313° |
| 2026-04-24 11:38 | 49.83640 | -3.04230 | 37269 ft | 438 kts | 326° |
| 2026-04-24 11:39 | 49.89064 | -3.08618 | 37273 ft | 440 kts | 330° |
| 2026-04-24 11:39 | 49.94513 | -3.12940 | 37290 ft | 440 kts | 329° |
| 2026-04-24 11:40 | 49.99521 | -3.18216 | 37287 ft | 432 kts | 313° |
| 2026-04-24 11:40 | 50.03126 | -3.25530 | 37273 ft | 425 kts | 297° |
| 2026-04-24 11:41 | 50.06881 | -3.32696 | 37261 ft | 434 kts | 316° |
| 2026-04-24 11:41 | 50.11925 | -3.37954 | 37261 ft | 438 kts | 326° |
| 2026-04-24 11:42 | 50.17142 | -3.42905 | 37268 ft | 439 kts | 326° |
| 2026-04-24 11:42 | 50.22351 | -3.47872 | 37275 ft | 438 kts | 326° |
| 2026-04-24 11:43 | 50.27547 | -3.52833 | 37277 ft | 438 kts | 326° |
| 2026-04-24 11:43 | 50.32754 | -3.57821 | 37282 ft | 438 kts | 326° |
| 2026-04-24 11:44 | 50.37910 | -3.62780 | 37290 ft | 438 kts | 326° |
| 2026-04-24 11:44 | 50.43091 | -3.67772 | 37296 ft | 437 kts | 325° |
| 2026-04-24 11:45 | 50.48279 | -3.72769 | 37287 ft | 437 kts | 326° |
| 2026-04-24 11:45 | 50.53470 | -3.77792 | 37278 ft | 438 kts | 324° |
| 2026-04-24 11:46 | 50.58658 | -3.82836 | 37284 ft | 439 kts | 325° |
| 2026-04-24 11:46 | 50.63846 | -3.87876 | 37285 ft | 438 kts | 325° |
| 2026-04-24 11:47 | 50.69036 | -3.92927 | 37273 ft | 438 kts | 325° |
| 2026-04-24 11:47 | 50.73342 | -3.97132 | 37271 ft | 438 kts | 326° |
| 2026-04-24 11:48 | 50.78522 | -4.02211 | 37272 ft | 438 kts | 326° |
| 2026-04-24 11:48 | 50.83695 | -4.07303 | 37286 ft | 437 kts | 326° |
| 2026-04-24 11:49 | 50.88844 | -4.12373 | 37285 ft | 436 kts | 325° |
| 2026-04-24 11:49 | 50.93994 | -4.17461 | 37279 ft | 435 kts | 325° |
| 2026-04-24 11:50 | 50.99123 | -4.22536 | 37279 ft | 435 kts | 326° |
| 2026-04-24 11:50 | 51.04253 | -4.27635 | 37264 ft | 435 kts | 326° |
| 2026-04-24 11:51 | 51.09394 | -4.32759 | 37257 ft | 436 kts | 326° |
| 2026-04-24 11:51 | 51.14551 | -4.37899 | 37254 ft | 437 kts | 326° |
| 2026-04-24 11:52 | 51.19701 | -4.43059 | 37262 ft | 438 kts | 326° |
| 2026-04-24 11:52 | 51.24832 | -4.48206 | 37264 ft | 438 kts | 326° |
| 2026-04-24 11:53 | 51.30021 | -4.53427 | 37290 ft | 438 kts | 326° |
| 2026-04-24 11:53 | 51.35149 | -4.58596 | 37295 ft | 438 kts | 326° |
| 2026-04-24 11:54 | 51.40299 | -4.63792 | 37279 ft | 438 kts | 325° |
| 2026-04-24 11:54 | 51.45450 | -4.69026 | 37289 ft | 438 kts | 326° |
| 2026-04-24 11:55 | 51.50586 | -4.74246 | 37297 ft | 438 kts | 325° |
| 2026-04-24 11:55 | 51.55722 | -4.79495 | 37301 ft | 437 kts | 325° |
| 2026-04-24 11:56 | 51.60853 | -4.84753 | 37289 ft | 437 kts | 324° |
| 2026-04-24 11:56 | 51.65997 | -4.90032 | 37275 ft | 439 kts | 325° |
| 2026-04-24 11:57 | 51.71152 | -4.95327 | 37281 ft | 440 kts | 325° |
| 2026-04-24 11:57 | 51.76304 | -5.00640 | 37293 ft | 439 kts | 324° |
| 2026-04-24 11:58 | 51.81447 | -5.05969 | 37297 ft | 439 kts | 325° |
| 2026-04-24 11:58 | 51.84021 | -5.08642 | 37116 ft | 439 kts | 325° |
| 2026-04-24 11:58 | 51.86586 | -5.11311 | 36847 ft | 439 kts | 325° |
| 2026-04-24 11:59 | 51.89152 | -5.13973 | 36558 ft | 438 kts | 325° |
| 2026-04-24 11:59 | 51.91683 | -5.16596 | 36023 ft | 436 kts | 325° |
| 2026-04-24 11:59 | 51.94257 | -5.19268 | 35491 ft | 433 kts | 325° |
| 2026-04-24 11:59 | 51.96783 | -5.21896 | 34985 ft | 431 kts | 325° |
| 2026-04-24 12:00 | 51.99317 | -5.24544 | 34004 ft | 439 kts | 324° |
| 2026-04-24 12:00 | 52.01898 | -5.27249 | 32747 ft | 442 kts | 325° |
| 2026-04-24 12:00 | 52.04440 | -5.29915 | 32268 ft | 425 kts | 324° |
| 2026-04-24 12:00 | 52.06844 | -5.32434 | 31884 ft | 409 kts | 324° |
| 2026-04-24 12:01 | 52.09207 | -5.34913 | 31247 ft | 400 kts | 324° |
| 2026-04-24 12:01 | 52.11521 | -5.37343 | 30548 ft | 394 kts | 324° |
| 2026-04-24 12:01 | 52.13805 | -5.39744 | 29745 ft | 388 kts | 324° |
| 2026-04-24 12:01 | 52.16062 | -5.42125 | 28950 ft | 383 kts | 324° |
| 2026-04-24 12:02 | 52.18287 | -5.44482 | 28142 ft | 378 kts | 325° |
| 2026-04-24 12:02 | 52.20476 | -5.46804 | 27500 ft | 376 kts | 324° |
| 2026-04-24 12:02 | 52.22659 | -5.49117 | 26940 ft | 373 kts | 325° |
| 2026-04-24 12:02 | 52.24827 | -5.51412 | 26494 ft | 370 kts | 324° |
| 2026-04-24 12:03 | 52.27026 | -5.53583 | 26062 ft | 369 kts | 332° |
| 2026-04-24 12:03 | 52.29419 | -5.55066 | 25624 ft | 368 kts | 344° |
| 2026-04-24 12:03 | 52.31941 | -5.55735 | 25189 ft | 368 kts | 356° |
| 2026-04-24 12:03 | 52.34486 | -5.55577 | 24744 ft | 368 kts | 8° |
| 2026-04-24 12:04 | 52.37010 | -5.54910 | 24331 ft | 366 kts | 8° |
| 2026-04-24 12:04 | 52.39515 | -5.54240 | 24028 ft | 363 kts | 8° |
| 2026-04-24 12:04 | 52.42009 | -5.53576 | 23968 ft | 363 kts | 8° |
| 2026-04-24 12:04 | 52.44498 | -5.52919 | 23986 ft | 363 kts | 8° |
| 2026-04-24 12:05 | 52.46962 | -5.52266 | 23996 ft | 364 kts | 9° |
| 2026-04-24 12:05 | 52.49497 | -5.51593 | 23995 ft | 363 kts | 8° |
| 2026-04-24 12:05 | 52.51988 | -5.50929 | 23985 ft | 364 kts | 8° |
| 2026-04-24 12:05 | 52.54502 | -5.50553 | 23996 ft | 363 kts | 358° |
| 2026-04-24 12:06 | 52.57007 | -5.50949 | 23994 ft | 361 kts | 348° |
| 2026-04-24 12:06 | 52.59400 | -5.52026 | 23995 ft | 361 kts | 341° |
| 2026-04-24 12:06 | 52.61809 | -5.53274 | 23468 ft | 368 kts | 342° |
| 2026-04-24 12:06 | 52.64269 | -5.54546 | 22946 ft | 367 kts | 343° |
| 2026-04-24 12:07 | 52.66669 | -5.55781 | 22764 ft | 356 kts | 343° |
| 2026-04-24 12:07 | 52.69019 | -5.56986 | 22404 ft | 352 kts | 344° |
| 2026-04-24 12:07 | 52.71347 | -5.58179 | 21983 ft | 349 kts | 344° |
| 2026-04-24 12:07 | 52.73656 | -5.59363 | 21565 ft | 347 kts | 344° |
| 2026-04-24 12:08 | 52.75958 | -5.60548 | 21156 ft | 345 kts | 344° |
| 2026-04-24 12:08 | 52.78230 | -5.61722 | 20899 ft | 339 kts | 344° |
| 2026-04-24 12:08 | 52.80448 | -5.62873 | 20767 ft | 328 kts | 344° |
| 2026-04-24 12:08 | 52.82598 | -5.63989 | 20519 ft | 323 kts | 345° |
| 2026-04-24 12:09 | 52.84751 | -5.65104 | 20070 ft | 326 kts | 345° |
| 2026-04-24 12:09 | 52.86926 | -5.66230 | 19608 ft | 329 kts | 345° |
| 2026-04-24 12:09 | 52.89120 | -5.67366 | 19140 ft | 331 kts | 345° |
| 2026-04-24 12:09 | 52.91332 | -5.68509 | 18701 ft | 334 kts | 345° |
| 2026-04-24 12:10 | 52.93554 | -5.69663 | 18189 ft | 336 kts | 345° |
| 2026-04-24 12:10 | 52.95790 | -5.70832 | 17690 ft | 338 kts | 345° |
| 2026-04-24 12:10 | 52.98044 | -5.72010 | 17191 ft | 341 kts | 345° |
| 2026-04-24 12:11 | 53.02588 | -5.74388 | 16221 ft | 344 kts | 345° |
| 2026-04-24 12:11 | 53.04881 | -5.75594 | 15740 ft | 346 kts | 345° |
| 2026-04-24 12:11 | 53.07179 | -5.76801 | 15269 ft | 348 kts | 345° |
| 2026-04-24 12:11 | 53.09498 | -5.78016 | 14719 ft | 347 kts | 344° |
| 2026-04-24 12:12 | 53.11675 | -5.79620 | 14166 ft | 342 kts | 329° |
| 2026-04-24 12:12 | 53.13513 | -5.82099 | 13550 ft | 337 kts | 313° |
| 2026-04-24 12:12 | 53.14855 | -5.85205 | 13095 ft | 327 kts | 297° |
| 2026-04-24 12:12 | 53.15777 | -5.88591 | 12714 ft | 315 kts | 292° |
| 2026-04-24 12:13 | 53.16647 | -5.91924 | 12325 ft | 313 kts | 292° |
| 2026-04-24 12:13 | 53.17517 | -5.95253 | 11953 ft | 313 kts | 292° |
| 2026-04-24 12:13 | 53.18384 | -5.98577 | 11587 ft | 314 kts | 292° |
| 2026-04-24 12:13 | 53.19257 | -6.01924 | 11216 ft | 314 kts | 292° |
| 2026-04-24 12:14 | 53.20124 | -6.05256 | 10847 ft | 313 kts | 292° |
| 2026-04-24 12:14 | 53.20987 | -6.08578 | 10489 ft | 313 kts | 292° |
| 2026-04-24 12:14 | 53.21845 | -6.11902 | 10103 ft | 312 kts | 291° |
| 2026-04-24 12:14 | 53.22705 | -6.15232 | 9680 ft | 312 kts | 291° |
| 2026-04-24 12:15 | 53.23560 | -6.18542 | 9293 ft | 310 kts | 291° |
| 2026-04-24 12:15 | 53.24402 | -6.21803 | 8898 ft | 299 kts | 291° |
| 2026-04-24 12:15 | 53.25212 | -6.24938 | 8515 ft | 288 kts | 291° |
| 2026-04-24 12:15 | 53.25977 | -6.27915 | 8133 ft | 277 kts | 291° |
| 2026-04-24 12:16 | 53.26731 | -6.30861 | 7758 ft | 269 kts | 290° |
| 2026-04-24 12:16 | 53.27457 | -6.33709 | 7391 ft | 265 kts | 290° |
| 2026-04-24 12:16 | 53.28156 | -6.36507 | 7032 ft | 262 kts | 285° |
| 2026-04-24 12:16 | 53.28412 | -6.39441 | 6944 ft | 253 kts | 262° |
| 2026-04-24 12:17 | 53.28004 | -6.42261 | 6958 ft | 248 kts | 239° |
| 2026-04-24 12:17 | 53.27014 | -6.44575 | 6965 ft | 239 kts | 217° |
| 2026-04-24 12:17 | 53.25740 | -6.46293 | 6951 ft | 238 kts | 213° |
| 2026-04-24 12:17 | 53.24450 | -6.47989 | 6951 ft | 239 kts | 213° |
| 2026-04-24 12:18 | 53.23128 | -6.49740 | 6963 ft | 239 kts | 214° |
| 2026-04-24 12:18 | 53.21948 | -6.51747 | 6947 ft | 244 kts | 233° |
| 2026-04-24 12:18 | 53.21364 | -6.54369 | 6951 ft | 244 kts | 261° |
| 2026-04-24 12:18 | 53.21573 | -6.57182 | 6945 ft | 251 kts | 290° |
| 2026-04-24 12:19 | 53.22578 | -6.59529 | 6775 ft | 251 kts | 322° |
| 2026-04-24 12:19 | 53.24086 | -6.60872 | 6624 ft | 250 kts | 339° |
| 2026-04-24 12:19 | 53.25700 | -6.61982 | 6439 ft | 251 kts | 339° |
| 2026-04-24 12:19 | 53.27323 | -6.63104 | 6262 ft | 254 kts | 339° |
| 2026-04-24 12:20 | 53.28959 | -6.64243 | 6085 ft | 255 kts | 339° |
| 2026-04-24 12:20 | 53.30589 | -6.65383 | 5909 ft | 254 kts | 339° |
| 2026-04-24 12:20 | 53.32224 | -6.66530 | 5721 ft | 253 kts | 339° |
| 2026-04-24 12:20 | 53.33840 | -6.67664 | 5553 ft | 252 kts | 338° |
| 2026-04-24 12:21 | 53.35473 | -6.68726 | 5365 ft | 251 kts | 345° |
| 2026-04-24 12:21 | 53.37165 | -6.69268 | 5201 ft | 245 kts | 358° |
| 2026-04-24 12:21 | 53.38841 | -6.69237 | 5002 ft | 239 kts | 9° |
| 2026-04-24 12:21 | 53.40501 | -6.68967 | 4800 ft | 239 kts | 9° |
| 2026-04-24 12:22 | 53.42156 | -6.68710 | 4596 ft | 238 kts | 8° |
| 2026-04-24 12:22 | 53.43794 | -6.68423 | 4385 ft | 235 kts | 15° |
| 2026-04-24 12:22 | 53.45150 | -6.67174 | 4212 ft | 216 kts | 56° |
| 2026-04-24 12:22 | 53.45699 | -6.64990 | 4156 ft | 200 kts | 90° |
| 2026-04-24 12:23 | 53.45595 | -6.62690 | 4098 ft | 198 kts | 100° |
| 2026-04-24 12:23 | 53.45445 | -6.60417 | 3990 ft | 199 kts | 99° |
| 2026-04-24 12:23 | 53.45314 | -6.58086 | 3772 ft | 198 kts | 98° |
| 2026-04-24 12:23 | 53.45193 | -6.55815 | 3529 ft | 197 kts | 98° |
| 2026-04-24 12:24 | 53.45077 | -6.53578 | 3264 ft | 186 kts | 98° |
| 2026-04-24 12:24 | 53.44967 | -6.51467 | 3020 ft | 178 kts | 97° |
| 2026-04-24 12:24 | 53.44859 | -6.49417 | 2784 ft | 175 kts | 98° |
| 2026-04-24 12:24 | 53.44753 | -6.47416 | 2546 ft | 168 kts | 98° |
| 2026-04-24 12:25 | 53.44652 | -6.45506 | 2317 ft | 162 kts | 98° |
| 2026-04-24 12:25 | 53.44555 | -6.43671 | 2111 ft | 155 kts | 99° |
| 2026-04-24 12:25 | 53.44461 | -6.41895 | 1903 ft | 153 kts | 99° |
| 2026-04-24 12:25 | 53.44365 | -6.40117 | 1708 ft | 153 kts | 97° |
| 2026-04-24 12:26 | 53.44273 | -6.38389 | 1502 ft | 145 kts | 99° |
| 2026-04-24 12:26 | 53.44185 | -6.36737 | 1304 ft | 138 kts | 99° |
| 2026-04-24 12:26 | 53.44101 | -6.35177 | 1129 ft | 133 kts | 96° |
| 2026-04-24 12:26 | 53.44019 | -6.33667 | 950 ft | 128 kts | 97° |
| 2026-04-24 12:27 | 53.43939 | -6.32193 | 693 ft | 128 kts | 95° |
| 2026-04-24 12:27 | 53.43850 | -6.30723 | 565 ft | 127 kts | 97° |
| 2026-04-24 12:27 | 53.43773 | -6.29208 | 421 ft | 130 kts | 94° |
| 2026-04-24 12:27 | 53.43702 | -6.27737 | 271 ft | 124 kts | 96° |
| 2026-04-24 12:28 | 53.43624 | -6.26459 | 229 ft | 87 kts | 96° |
| 2026-04-24 12:28 | 53.43584 | -6.25714 | 225 ft | 51 kts | 94° |
| 2026-04-24 12:28 | 53.43554 | -6.25319 | 224 ft | 27 kts | 112° |
| 2026-04-24 12:28 | 53.43469 | -6.25052 | 225 ft | 11 kts | 121° |
| 2026-04-24 12:29 | 53.43467 | -6.25046 | 225 ft | 0 kts | 121° |
| 2026-04-24 12:30 | 53.43466 | -6.25043 | 225 ft | 1 kts | 121° |
| 2026-04-24 12:30 | 53.43456 | -6.25016 | 225 ft | 9 kts | 121° |
| 2026-04-24 12:30 | 53.43384 | -6.24810 | 225 ft | 23 kts | 118° |
| 2026-04-24 12:31 | 53.43357 | -6.24597 | 225 ft | 19 kts | 94° |
| 2026-04-24 12:31 | 53.43312 | -6.24418 | 225 ft | 18 kts | 164° |
| 2026-04-24 12:31 | 53.43200 | -6.24465 | 225 ft | 17 kts | 245° |
| 2026-04-24 12:31 | 53.43202 | -6.24654 | 225 ft | 16 kts | 275° |
| 2026-04-24 12:32 | 53.43210 | -6.24829 | 225 ft | 14 kts | 274° |
| 2026-04-24 12:32 | 53.43217 | -6.24990 | 225 ft | 13 kts | 275° |
| 2026-04-24 12:32 | 53.43227 | -6.25142 | 225 ft | 14 kts | 277° |
| 2026-04-24 12:32 | 53.43229 | -6.25308 | 226 ft | 15 kts | 255° |
| 2026-04-24 12:33 | 53.43185 | -6.25480 | 225 ft | 18 kts | 231° |
| 2026-04-24 12:33 | 53.43069 | -6.25457 | 225 ft | 19 kts | 156° |
| 2026-04-24 12:33 | 53.42980 | -6.25391 | 227 ft | 9 kts | 156° |
| 2026-04-24 12:33 | 53.42921 | -6.25338 | 225 ft | 11 kts | 147° |
| 2026-04-24 12:34 | 53.42849 | -6.25276 | 225 ft | 13 kts | 160° |
| 2026-04-24 12:34 | 53.42758 | -6.25219 | 225 ft | 15 kts | 155° |
| 2026-04-24 12:34 | 53.42755 | -6.25078 | 225 ft | 15 kts | 65° |
| 2026-04-24 12:34 | 53.42698 | -6.24956 | 225 ft | 15 kts | 146° |
| 2026-04-24 12:35 | 53.42623 | -6.24848 | 225 ft | 15 kts | 128° |
| 2026-04-24 12:35 | 53.42619 | -6.24720 | 225 ft | 7 kts | 75° |
| 2026-04-24 12:35 | 53.42623 | -6.24682 | 225 ft | 0 kts | 86° |